createdAt,value
2022-08-01T00:01:41.893Z,2.60
2022-08-01T00:04:10.804Z,2.90
2022-08-01T00:06:40.408Z,2.83
2022-08-01T00:09:11.887Z,2.80
2022-08-01T00:11:43.217Z,3.37
2022-08-01T00:14:13.245Z,2.70
2022-08-01T00:16:42.292Z,2.77
2022-08-01T00:19:11.365Z,2.60
2022-08-01T00:21:40.442Z,2.60
2022-08-01T00:24:14.331Z,2.75
2022-08-01T00:26:44.507Z,2.60
2022-08-01T00:30:10.387Z,2.35
2022-08-01T00:31:46.539Z,2.50
2022-08-01T00:34:16.146Z,2.70
2022-08-01T00:36:45.536Z,2.50
2022-08-01T00:39:14.956Z,2.67
2022-08-01T00:41:44.846Z,2.50
2022-08-01T00:44:13.936Z,2.75
2022-08-01T00:46:44.509Z,2.60
2022-08-01T00:49:14.618Z,2.67
2022-08-01T00:51:43.729Z,3.35
2022-08-01T00:54:13.211Z,2.77
2022-08-01T00:56:43.329Z,2.65
2022-08-01T00:59:14.153Z,2.45
2022-08-01T01:01:50.075Z,2.60
2022-08-01T01:04:20.087Z,2.47
2022-08-01T01:07:08.922Z,2.85
2022-08-01T01:09:59.870Z,3.00
2022-08-01T01:13:00.782Z,3.22
2022-08-01T01:15:42.600Z,2.90
2022-08-01T01:18:19.934Z,2.70
2022-08-01T01:21:03.665Z,2.65
2022-08-01T01:23:54.992Z,2.55
2022-08-01T01:27:09.450Z,2.92
2022-08-01T01:29:58.639Z,2.92
2022-08-01T01:32:40.426Z,2.70
2022-08-01T01:35:14.428Z,2.60
2022-08-01T01:37:43.892Z,2.65
2022-08-01T01:40:13.189Z,2.92
2022-08-01T01:42:43.036Z,2.60
2022-08-01T01:45:12.419Z,2.62
2022-08-01T01:47:41.724Z,2.40
2022-08-01T01:50:11.557Z,2.42
2022-08-01T01:52:40.882Z,2.65
2022-08-01T01:55:10.880Z,2.40
2022-08-01T01:57:42.530Z,2.40
2022-08-01T02:00:13.892Z,2.62
2022-08-01T02:02:43.355Z,2.58
2022-08-01T02:05:13.538Z,2.37
2022-08-01T02:07:43.883Z,2.70
2022-08-01T02:10:13.994Z,2.45
2022-08-01T02:12:43.878Z,2.80
2022-08-01T02:15:15.287Z,2.70
2022-08-01T02:17:48.074Z,2.58
2022-08-01T02:20:17.214Z,2.55
2022-08-01T02:22:53.870Z,2.67
2022-08-01T02:25:37.630Z,2.92
2022-08-01T02:28:11.403Z,2.80
2022-08-01T02:30:43.866Z,2.45
2022-08-01T02:33:21.998Z,2.62
2022-08-01T02:36:31.362Z,2.62
2022-08-01T02:38:27.645Z,2.70
2022-08-01T02:40:58.430Z,2.95
2022-08-01T02:43:29.131Z,2.72
2022-08-01T02:46:01.427Z,2.75
2022-08-01T02:48:31.324Z,2.90
2022-08-01T02:51:02.026Z,2.60
2022-08-01T02:53:43.030Z,2.75
2022-08-01T02:56:07.574Z,2.67
2022-08-01T02:58:38.030Z,2.87
2022-08-01T03:01:09.633Z,2.70
2022-08-01T03:03:40.691Z,2.87
2022-08-01T03:06:09.813Z,3.45
2022-08-01T03:08:39.994Z,3.37
2022-08-01T03:11:09.472Z,3.17
2022-08-01T03:13:38.877Z,3.02
2022-08-01T03:16:08.159Z,3.02
2022-08-01T03:18:37.709Z,2.47
2022-08-01T03:21:08.790Z,2.30
2022-08-01T03:23:38.619Z,2.10
2022-08-01T03:26:08.487Z,2.30
2022-08-01T03:28:38.818Z,2.37
2022-08-01T03:31:08.862Z,2.20
2022-08-01T03:33:39.209Z,2.20
2022-08-01T03:36:10.612Z,2.30
2022-08-01T03:38:40.756Z,2.50
2022-08-01T03:41:22.831Z,2.20
2022-08-01T03:44:03.915Z,1.87
2022-08-01T03:46:51.263Z,2.02
2022-08-01T03:49:24.582Z,2.00
2022-08-01T03:51:54.251Z,2.17
2022-08-01T03:54:25.731Z,1.98
2022-08-01T03:56:55.126Z,2.02
2022-08-01T03:59:26.070Z,2.10
2022-08-01T04:01:55.540Z,2.00
2022-08-01T04:04:25.418Z,1.95
2022-08-01T04:06:55.276Z,2.12
2022-08-01T04:09:24.634Z,2.08
2022-08-01T04:11:53.680Z,2.60
2022-08-01T04:14:24.743Z,1.92
2022-08-01T04:16:53.839Z,1.90
2022-08-01T04:19:23.557Z,2.08
2022-08-01T04:21:53.485Z,2.20
2022-08-01T04:24:22.739Z,2.17
2022-08-01T04:26:52.248Z,2.17
2022-08-01T04:29:22.547Z,2.12
2022-08-01T04:31:51.673Z,1.75
2022-08-01T04:34:22.770Z,2.17
2022-08-01T04:36:53.900Z,1.80
2022-08-01T04:39:25.152Z,2.30
2022-08-01T04:41:55.965Z,2.42
2022-08-01T04:44:30.992Z,2.00
2022-08-01T04:47:04.408Z,2.47
2022-08-01T04:49:48.856Z,2.05
2022-08-01T04:52:07.262Z,2.12
2022-08-01T04:54:39.149Z,1.90
2022-08-01T04:57:08.967Z,2.00
2022-08-01T04:59:43.510Z,1.90
2022-08-01T05:02:16.145Z,2.08
2022-08-01T05:04:46.434Z,2.17
2022-08-01T05:07:16.640Z,2.58
2022-08-01T05:09:47.169Z,1.90
2022-08-01T05:12:17.476Z,2.05
2022-08-01T05:14:47.679Z,2.15
2022-08-01T05:17:18.040Z,2.52
2022-08-01T05:19:47.450Z,2.05
2022-08-01T05:22:17.734Z,2.08
2022-08-01T05:24:48.244Z,3.00
2022-08-01T05:27:19.589Z,2.35
2022-08-01T05:29:49.190Z,2.40
2022-08-01T05:32:18.456Z,2.20
2022-08-01T05:34:47.394Z,2.20
2022-08-01T05:37:16.142Z,2.08
2022-08-01T05:39:47.751Z,2.20
2022-08-01T05:42:16.997Z,1.95
2022-08-01T05:44:46.161Z,2.40
2022-08-01T05:47:16.286Z,2.25
2022-08-01T05:49:46.920Z,2.40
2022-08-01T05:52:16.893Z,2.50
2022-08-01T05:54:46.368Z,2.60
2022-08-01T05:57:17.035Z,2.37
2022-08-01T05:59:47.007Z,2.40
2022-08-01T06:02:16.725Z,2.30
2022-08-01T06:04:46.156Z,2.55
2022-08-01T06:07:16.320Z,2.52
2022-08-01T06:09:46.564Z,2.00
2022-08-01T06:12:16.600Z,1.98
2022-08-01T06:14:47.060Z,2.72
2022-08-01T06:17:16.909Z,2.85
2022-08-01T06:19:46.666Z,2.10
2022-08-01T06:22:16.431Z,2.92
2022-08-01T06:24:46.672Z,2.52
2022-08-01T06:27:21.483Z,2.37
2022-08-01T06:29:51.211Z,3.42
2022-08-01T06:32:26.918Z,2.72
2022-08-01T06:34:51.870Z,2.40
2022-08-01T06:37:22.273Z,2.33
2022-08-01T06:39:52.611Z,2.40
2022-08-01T06:42:22.243Z,2.33
2022-08-01T06:44:52.304Z,2.42
2022-08-01T06:47:21.963Z,2.60
2022-08-01T06:49:51.143Z,2.65
2022-08-01T06:52:21.268Z,2.50
2022-08-01T06:54:50.485Z,2.65
2022-08-01T06:57:19.734Z,2.60
2022-08-01T06:59:54.220Z,2.42
2022-08-01T07:02:20.389Z,2.45
2022-08-01T07:04:51.257Z,2.50
2022-08-01T07:07:20.931Z,2.77
2022-08-01T07:09:52.391Z,2.25
2022-08-01T07:12:22.728Z,2.27
2022-08-01T07:14:52.663Z,2.20
2022-08-01T07:17:22.043Z,2.45
2022-08-01T07:19:51.360Z,2.40
2022-08-01T07:22:22.449Z,2.25
2022-08-01T07:24:54.490Z,2.12
2022-08-01T07:27:23.985Z,2.40
2022-08-01T07:29:55.222Z,2.17
2022-08-01T07:32:25.653Z,4.20
2022-08-01T07:34:55.677Z,2.90
2022-08-01T07:37:48.622Z,2.70
2022-08-01T07:39:57.892Z,2.60
2022-08-01T07:42:27.204Z,2.50
2022-08-01T07:44:57.077Z,2.12
2022-08-01T07:47:27.013Z,2.10
2022-08-01T07:50:02.354Z,2.42
2022-08-01T07:52:32.881Z,2.40
2022-08-01T07:55:02.196Z,2.17
2022-08-01T07:57:32.515Z,2.55
2022-08-01T08:00:02.345Z,2.50
2022-08-01T08:02:34.036Z,3.08
2022-08-01T08:05:04.841Z,3.17
2022-08-01T08:07:37.313Z,2.77
2022-08-01T08:10:07.685Z,2.60
2022-08-01T08:12:36.545Z,2.40
2022-08-01T08:15:07.456Z,2.52
2022-08-01T08:17:36.631Z,3.87
2022-08-01T08:20:09.507Z,3.85
2022-08-01T08:22:40.511Z,3.25
2022-08-01T08:25:09.985Z,2.70
2022-08-01T08:27:41.984Z,2.60
2022-08-01T08:30:12.260Z,2.75
2022-08-01T08:32:41.384Z,2.40
2022-08-01T08:35:12.365Z,2.92
2022-08-01T08:37:47.901Z,3.50
2022-08-01T08:40:18.049Z,2.98
2022-08-01T08:42:47.266Z,3.15
2022-08-01T08:45:16.785Z,3.22
2022-08-01T08:47:48.129Z,3.02
2022-08-01T08:50:17.928Z,2.72
2022-08-01T08:52:48.980Z,2.87
2022-08-01T08:55:20.025Z,3.10
2022-08-01T08:57:50.120Z,3.05
2022-08-01T09:00:19.769Z,3.15
2022-08-01T09:02:54.935Z,3.27
2022-08-01T09:05:39.207Z,2.87
2022-08-01T09:07:59.968Z,2.92
2022-08-01T09:10:30.088Z,4.03
2022-08-01T09:13:12.986Z,4.40
2022-08-01T09:15:50.924Z,3.58
2022-08-01T09:18:42.223Z,3.77
2022-08-01T09:21:20.000Z,3.42
2022-08-01T09:23:55.793Z,3.00
2022-08-01T09:26:34.645Z,3.50
2022-08-01T09:29:06.653Z,3.40
2022-08-01T09:31:47.530Z,3.33
2022-08-01T09:34:19.936Z,5.47
2022-08-01T09:36:59.327Z,3.30
2022-08-01T09:39:40.549Z,3.55
2022-08-01T09:42:28.889Z,3.35
2022-08-01T09:44:57.261Z,3.85
2022-08-01T09:47:40.686Z,4.17
2022-08-01T09:50:11.585Z,3.58
2022-08-01T09:52:41.460Z,3.35
2022-08-01T09:55:11.735Z,3.67
2022-08-01T09:57:42.329Z,3.00
2022-08-01T10:00:35.757Z,3.08
2022-08-01T10:02:50.559Z,3.45
2022-08-01T10:05:37.224Z,3.50
2022-08-01T10:08:07.526Z,3.40
2022-08-01T10:10:38.340Z,3.58
2022-08-01T10:13:09.868Z,5.80
2022-08-01T10:15:40.109Z,4.53
2022-08-01T10:18:16.872Z,3.72
2022-08-01T10:20:43.219Z,3.50
2022-08-01T10:23:13.530Z,3.58
2022-08-01T10:25:46.725Z,3.08
2022-08-01T10:28:23.858Z,3.47
2022-08-01T10:30:49.686Z,3.65
2022-08-01T10:33:49.937Z,3.17
2022-08-01T10:35:54.813Z,3.65
2022-08-01T10:38:26.006Z,3.70
2022-08-01T10:40:56.109Z,3.52
2022-08-01T10:43:26.785Z,3.30
2022-08-01T10:45:56.664Z,3.85
2022-08-01T10:48:41.341Z,3.62
2022-08-01T10:51:17.471Z,3.42
2022-08-01T10:53:54.863Z,3.60
2022-08-01T10:56:26.830Z,3.35
2022-08-01T10:59:06.181Z,3.67
2022-08-01T11:01:37.644Z,4.80
2022-08-01T11:04:16.814Z,5.47
2022-08-01T11:07:06.516Z,3.62
2022-08-01T11:09:51.766Z,3.60
2022-08-01T11:12:23.283Z,3.50
2022-08-01T11:15:08.084Z,3.80
2022-08-01T11:17:47.466Z,3.40
2022-08-01T11:20:31.779Z,3.50
2022-08-01T11:23:07.088Z,3.37
2022-08-01T11:26:04.639Z,3.50
2022-08-01T11:28:32.510Z,3.60
2022-08-01T11:31:17.821Z,3.77
2022-08-01T11:33:49.909Z,3.40
2022-08-01T11:36:42.587Z,3.70
2022-08-01T11:39:13.217Z,3.65
2022-08-01T11:41:39.581Z,4.17
2022-08-01T11:44:14.412Z,4.03
2022-08-01T11:47:10.166Z,3.80
2022-08-01T11:49:50.041Z,4.17
2022-08-01T11:52:40.397Z,4.00
2022-08-01T11:55:11.854Z,4.55
2022-08-01T11:57:44.137Z,4.70
2022-08-01T12:00:19.173Z,4.40
2022-08-01T12:02:48.451Z,4.22
2022-08-01T12:05:21.099Z,4.92
2022-08-01T12:07:54.325Z,4.42
2022-08-01T12:10:29.177Z,4.42
2022-08-01T12:13:04.074Z,4.00
2022-08-01T12:15:36.387Z,4.30
2022-08-01T12:18:08.188Z,4.00
2022-08-01T12:20:56.049Z,4.00
2022-08-01T12:23:16.695Z,4.05
2022-08-01T12:25:50.083Z,4.25
2022-08-01T12:28:19.530Z,4.25
2022-08-01T12:30:49.993Z,5.33
2022-08-01T12:33:21.035Z,3.90
2022-08-01T12:35:51.201Z,4.83
2022-08-01T12:38:24.232Z,4.80
2022-08-01T12:40:54.921Z,4.78
2022-08-01T12:43:27.986Z,4.42
2022-08-01T12:46:00.635Z,4.10
2022-08-01T12:48:31.419Z,3.87
2022-08-01T12:51:04.107Z,4.22
2022-08-01T12:53:40.628Z,4.05
2022-08-01T12:56:08.918Z,4.30
2022-08-01T12:58:40.399Z,4.15
2022-08-01T13:01:13.181Z,4.15
2022-08-01T13:03:46.445Z,3.98
2022-08-01T13:06:17.801Z,4.53
2022-08-01T13:08:48.571Z,4.00
2022-08-01T13:11:19.659Z,4.10
2022-08-01T13:13:54.018Z,4.28
2022-08-01T13:16:30.421Z,3.75
2022-08-01T13:19:00.033Z,4.00
2022-08-01T13:21:53.368Z,3.90
2022-08-01T13:24:11.553Z,3.67
2022-08-01T13:26:49.410Z,4.08
2022-08-01T13:29:23.865Z,4.08
2022-08-01T13:31:53.497Z,3.85
2022-08-01T13:34:34.111Z,4.28
2022-08-01T13:37:03.840Z,5.35
2022-08-01T13:39:48.742Z,4.20
2022-08-01T13:42:19.622Z,3.67
2022-08-01T13:44:50.578Z,3.30
2022-08-01T13:47:20.032Z,3.70
2022-08-01T13:49:51.092Z,3.52
2022-08-01T13:52:19.881Z,3.95
2022-08-01T13:54:49.025Z,3.62
2022-08-01T13:57:19.928Z,3.50
2022-08-01T13:59:48.986Z,3.35
2022-08-01T14:02:18.382Z,3.35
2022-08-01T14:04:47.931Z,3.15
2022-08-01T14:07:19.447Z,3.60
2022-08-01T14:09:57.860Z,3.50
2022-08-01T14:12:20.569Z,3.58
2022-08-01T14:14:51.204Z,3.30
2022-08-01T14:17:21.209Z,3.92
2022-08-01T14:19:50.738Z,3.65
2022-08-01T14:22:21.480Z,3.85
2022-08-01T14:24:50.568Z,3.65
2022-08-01T14:27:22.070Z,3.77
2022-08-01T14:30:00.458Z,3.80
2022-08-01T14:32:28.881Z,3.47
2022-08-01T14:34:54.807Z,3.45
2022-08-01T14:37:29.138Z,3.60
2022-08-01T14:39:56.305Z,3.70
2022-08-01T14:42:26.102Z,3.95
2022-08-01T14:44:55.990Z,3.75
2022-08-01T14:47:25.656Z,4.00
2022-08-01T14:49:56.120Z,3.77
2022-08-01T14:52:25.696Z,3.80
2022-08-01T14:54:54.994Z,3.80
2022-08-01T14:57:24.453Z,4.17
2022-08-01T14:59:54.043Z,4.00
2022-08-01T15:02:23.263Z,3.87
2022-08-01T15:04:53.500Z,3.83
2022-08-01T15:07:23.551Z,3.65
2022-08-01T15:09:53.095Z,3.95
2022-08-01T15:12:23.810Z,4.00
2022-08-01T15:14:52.989Z,3.87
2022-08-01T15:17:30.137Z,3.90
2022-08-01T15:20:03.660Z,4.58
2022-08-01T15:22:33.985Z,4.10
2022-08-01T15:25:03.835Z,4.42
2022-08-01T15:27:34.716Z,3.95
2022-08-01T15:30:05.210Z,3.90
2022-08-01T15:32:34.730Z,3.85
2022-08-01T15:35:05.690Z,4.55
2022-08-01T15:37:42.272Z,4.05
2022-08-01T15:40:09.655Z,4.60
2022-08-01T15:42:39.541Z,3.95
2022-08-01T15:45:20.703Z,4.20
2022-08-01T15:47:41.130Z,4.03
2022-08-01T15:50:11.037Z,4.67
2022-08-01T15:52:40.521Z,7.25
2022-08-01T15:55:11.149Z,4.70
2022-08-01T15:57:43.153Z,4.30
2022-08-01T16:00:14.725Z,5.17
2022-08-01T16:02:43.663Z,4.33
2022-08-01T16:05:13.671Z,4.33
2022-08-01T16:07:59.424Z,4.40
2022-08-01T16:10:17.501Z,4.17
2022-08-01T16:12:46.757Z,4.50
2022-08-01T16:15:16.707Z,4.30
2022-08-01T16:17:46.273Z,4.33
2022-08-01T16:20:15.172Z,4.30
2022-08-01T16:22:44.949Z,4.30
2022-08-01T16:25:15.385Z,4.80
2022-08-01T16:27:46.427Z,4.55
2022-08-01T16:30:16.090Z,4.42
2022-08-01T16:32:47.954Z,4.62
2022-08-01T16:35:18.688Z,4.97
2022-08-01T16:37:48.544Z,4.65
2022-08-01T16:40:19.339Z,4.40
2022-08-01T16:42:49.643Z,5.33
2022-08-01T16:45:21.422Z,4.37
2022-08-01T16:47:52.289Z,4.03
2022-08-01T16:50:27.972Z,4.22
2022-08-01T16:52:53.685Z,4.40
2022-08-01T16:55:24.112Z,4.53
2022-08-01T16:57:55.209Z,5.47
2022-08-01T17:00:26.183Z,4.87
2022-08-01T17:02:57.237Z,4.87
2022-08-01T17:05:28.671Z,4.62
2022-08-01T17:07:59.171Z,4.85
2022-08-01T17:10:29.400Z,4.70
2022-08-01T17:12:58.836Z,4.53
2022-08-01T17:15:34.418Z,4.70
2022-08-01T17:18:02.867Z,4.53
2022-08-01T17:20:32.027Z,4.80
2022-08-01T17:23:02.075Z,4.70
2022-08-01T17:25:32.042Z,4.85
2022-08-01T17:28:01.612Z,4.62
2022-08-01T17:30:31.841Z,4.55
2022-08-01T17:33:02.381Z,4.65
2022-08-01T17:35:32.592Z,4.90
2022-08-01T17:38:02.352Z,4.78
2022-08-01T17:40:40.263Z,4.72
2022-08-01T17:43:03.265Z,4.80
2022-08-01T17:45:39.331Z,4.50
2022-08-01T17:48:05.475Z,4.50
2022-08-01T17:50:36.188Z,4.75
2022-08-01T17:53:06.388Z,4.58
2022-08-01T17:55:55.516Z,4.62
2022-08-01T17:58:09.526Z,5.00
2022-08-01T18:00:39.361Z,4.92
2022-08-01T18:03:08.643Z,5.47
2022-08-01T18:05:38.486Z,4.83
2022-08-01T18:08:08.065Z,5.25
2022-08-01T18:10:40.030Z,4.90
2022-08-01T18:13:11.037Z,5.10
2022-08-01T18:15:41.016Z,5.03
2022-08-01T18:18:12.815Z,5.00
2022-08-01T18:20:42.754Z,5.15
2022-08-01T18:23:12.680Z,5.37
2022-08-01T18:25:42.073Z,5.47
2022-08-01T18:28:23.457Z,4.67
2022-08-01T18:30:43.727Z,5.25
2022-08-01T18:33:13.784Z,5.47
2022-08-01T18:35:53.482Z,5.62
2022-08-01T18:38:17.525Z,5.50
2022-08-01T18:40:47.052Z,6.10
2022-08-01T18:43:16.374Z,5.08
2022-08-01T18:45:46.817Z,5.25
2022-08-01T18:48:17.400Z,5.50
2022-08-01T18:50:47.297Z,5.55
2022-08-01T18:53:18.869Z,5.72
2022-08-01T18:55:48.628Z,5.70
2022-08-01T18:58:18.372Z,5.67
2022-08-01T19:00:48.512Z,5.55
2022-08-01T19:03:20.488Z,5.53
2022-08-01T19:05:50.102Z,5.97
2022-08-01T19:08:20.033Z,5.67
2022-08-01T19:10:49.609Z,5.95
2022-08-01T19:13:20.621Z,5.25
2022-08-01T19:15:50.205Z,5.80
2022-08-01T19:18:19.386Z,5.33
2022-08-01T19:20:49.486Z,4.90
2022-08-01T19:23:37.898Z,5.47
2022-08-01T19:26:13.114Z,5.10
2022-08-01T19:28:47.815Z,4.62
2022-08-01T19:31:17.333Z,4.97
2022-08-01T19:33:48.170Z,5.10
2022-08-01T19:36:17.952Z,4.92
2022-08-01T19:38:47.311Z,6.12
2022-08-01T19:41:17.965Z,5.35
2022-08-01T19:43:47.921Z,5.00
2022-08-01T19:46:18.174Z,5.30
2022-08-01T19:48:53.592Z,4.90
2022-08-01T19:51:22.734Z,4.80
2022-08-01T19:53:55.191Z,4.40
2022-08-01T19:56:27.216Z,4.37
2022-08-01T19:59:00.317Z,4.40
2022-08-01T20:01:29.605Z,4.17
2022-08-01T20:03:59.831Z,4.17
2022-08-01T20:06:31.266Z,4.10
2022-08-01T20:09:01.380Z,4.33
2022-08-01T20:11:31.190Z,4.25
2022-08-01T20:14:01.190Z,4.00
2022-08-01T20:16:32.409Z,3.90
2022-08-01T20:19:02.145Z,4.30
2022-08-01T20:21:31.111Z,4.30
2022-08-01T20:24:02.458Z,4.17
2022-08-01T20:26:32.599Z,4.00
2022-08-01T20:29:02.738Z,4.40
2022-08-01T20:31:42.848Z,4.00
2022-08-01T20:34:06.273Z,3.95
2022-08-01T20:36:36.408Z,4.25
2022-08-01T20:39:05.761Z,4.08
2022-08-01T20:41:37.970Z,3.65
2022-08-01T20:44:07.350Z,4.05
2022-08-01T20:46:38.992Z,4.08
2022-08-01T20:49:09.429Z,3.90
2022-08-01T20:51:42.373Z,3.87
2022-08-01T20:54:10.738Z,3.70
2022-08-01T20:56:48.294Z,3.83
2022-08-01T21:00:01.781Z,3.87
2022-08-01T21:02:51.594Z,3.87
2022-08-01T21:05:39.887Z,3.60
2022-08-01T21:08:24.723Z,4.10
2022-08-01T21:10:59.451Z,3.92
2022-08-01T21:13:42.457Z,4.25
2022-08-01T21:16:24.153Z,4.08
2022-08-01T21:19:17.939Z,3.90
2022-08-01T21:21:28.388Z,3.80
2022-08-01T21:24:05.200Z,4.20
2022-08-01T21:26:35.907Z,4.03
2022-08-01T21:29:07.087Z,3.62
2022-08-01T21:31:37.818Z,3.70
2022-08-01T21:34:09.420Z,3.80
2022-08-01T21:36:39.589Z,3.95
2022-08-01T21:39:09.686Z,4.15
2022-08-01T21:42:03.360Z,4.03
2022-08-01T21:44:13.133Z,3.90
2022-08-01T21:46:42.838Z,4.15
2022-08-01T21:49:13.307Z,4.03
2022-08-01T21:51:52.117Z,4.15
2022-08-01T21:54:42.058Z,3.87
2022-08-01T21:57:57.667Z,3.92
2022-08-01T22:00:26.938Z,3.62
2022-08-01T22:03:19.999Z,4.00
2022-08-01T22:05:51.641Z,3.87
2022-08-01T22:08:36.842Z,3.80
2022-08-01T22:11:08.950Z,4.80
2022-08-01T22:13:39.547Z,4.08
2022-08-01T22:16:09.680Z,3.85
2022-08-01T22:18:40.064Z,3.72
2022-08-01T22:21:09.698Z,4.12
2022-08-01T22:23:39.946Z,4.35
2022-08-01T22:26:10.790Z,4.15
2022-08-01T22:28:40.991Z,3.90
2022-08-01T22:31:11.801Z,4.25
2022-08-01T22:33:46.225Z,4.30
2022-08-01T22:36:15.482Z,3.55
2022-08-01T22:38:49.403Z,3.80
2022-08-01T22:41:22.008Z,3.60
2022-08-01T22:44:02.311Z,3.85
2022-08-01T22:47:03.175Z,3.92
2022-08-01T22:49:40.462Z,3.90
2022-08-01T22:52:23.029Z,4.20
2022-08-01T22:54:59.006Z,4.08
2022-08-01T22:57:48.589Z,3.85
2022-08-01T23:00:16.493Z,4.03
2022-08-01T23:02:55.353Z,3.80
2022-08-01T23:05:26.070Z,3.80
2022-08-01T23:07:56.898Z,3.90
2022-08-01T23:10:27.875Z,3.98
2022-08-01T23:12:57.711Z,3.40
2022-08-01T23:15:27.155Z,4.08
2022-08-01T23:17:57.420Z,4.10
2022-08-01T23:20:27.421Z,4.08
2022-08-01T23:22:57.598Z,4.12
2022-08-01T23:25:27.308Z,4.50
2022-08-01T23:28:05.345Z,4.12
2022-08-01T23:30:31.705Z,4.30
2022-08-01T23:33:01.520Z,4.70
2022-08-01T23:35:31.818Z,4.42
2022-08-01T23:38:03.899Z,3.98
2022-08-01T23:40:34.265Z,4.50
2022-08-01T23:43:05.053Z,4.83
2022-08-01T23:46:01.738Z,4.65
2022-08-01T23:48:06.431Z,5.30
2022-08-01T23:50:36.552Z,4.53
2022-08-01T23:53:06.985Z,4.53
2022-08-01T23:55:37.586Z,4.42
2022-08-01T23:58:07.835Z,4.90
